Question-and-Answer Resource for the Building Energy Modeling Community
Get s tarted with the Help page
Ask Your Question

ericmartinpe's profile - karma

ericmartinpe's karma change log

10 0 Importing CBECC-Res model ( 2021-09-06 09:15:18 -0500 )

10 0 Importing CBECC-Res model ( 2021-09-04 20:39:09 -0500 )

10 0 EnergyPlus Python Plugin String Data Exchange ( 2021-08-14 10:18:07 -0500 )

10 0 Does elevator contributes to the heat gains in the building ( 2021-08-03 09:57:52 -0500 )

10 0 Does elevator contributes to the heat gains in the building ( 2021-08-03 09:03:25 -0500 )

10 0 Does elevator contributes to the heat gains in the building ( 2021-08-02 23:09:51 -0500 )

10 0 Does elevator contributes to the heat gains in the building ( 2021-08-02 20:25:55 -0500 )

10 0 Does elevator contributes to the heat gains in the building ( 2021-08-02 17:34:02 -0500 )

10 0 How to model timer control for DHW in Energyplus(EP-Launch). ( 2021-07-31 12:58:42 -0500 )

10 0 Water heater fuel type per T24/CBECC-Com/ACM ( 2021-07-21 12:24:54 -0500 )

10 0 How to delete an object from the idf file in an energyplus measure? ( 2021-07-20 16:37:39 -0500 )

10 0 How to delete an object from the idf file in an energyplus measure? ( 2021-07-20 12:15:01 -0500 )

10 0 What is the basis for Air Film Resistances used to calculate U-Factor with Film? ( 2021-07-09 16:35:13 -0500 )

10 0 Running Energyplus through windows command with RunEplus.bat ( 2021-06-22 10:23:47 -0500 )

10 0 Running Energyplus through windows command with RunEplus.bat ( 2021-06-18 09:37:51 -0500 )

10 0 What is the basis for Air Film Resistances used to calculate U-Factor with Film? ( 2021-06-18 09:37:21 -0500 )

15 0 Running Energyplus through windows command with RunEplus.bat ( 2021-06-17 13:14:30 -0500 )

10 0 Running Energyplus through windows command with RunEplus.bat ( 2021-06-17 13:14:29 -0500 )

10 0 Modeling a Heat Pump on a DOE Commercial Prototype Highrise Apt Building ( 2021-06-15 19:13:42 -0500 )

10 0 Modeling a Heat Pump on a DOE Commercial Prototype Highrise Apt Building ( 2021-06-15 15:03:45 -0500 )

15 0 Open Loop Ground Source Heat Pump in E+ ( 2021-06-11 09:11:03 -0500 )

10 0 Open Loop Ground Source Heat Pump in E+ ( 2021-06-11 09:10:58 -0500 )

10 0 Open Loop Ground Source Heat Pump in E+ ( 2021-05-25 09:00:14 -0500 )

10 0 Open Loop Ground Source Heat Pump in E+ ( 2021-05-25 07:34:11 -0500 )

10 0 Openstudio/sketchup - which direction does openstudio add wall thickness to sketchup geometry? ( 2021-05-17 14:34:07 -0500 )

10 0 Openstudio/sketchup - which direction does openstudio add wall thickness to sketchup geometry? ( 2021-05-17 09:01:06 -0500 )

10 0 Openstudio/sketchup - which direction does openstudio add wall thickness to sketchup geometry? ( 2021-05-16 11:38:01 -0500 )

10 0 How to calculate total space heating/air conditioning in EP? ( 2021-05-06 15:39:58 -0500 )

15 0 How to calculate total space heating/air conditioning in EP? ( 2021-05-06 01:19:37 -0500 )

10 0 How to calculate total space heating/air conditioning in EP? ( 2021-05-06 01:19:35 -0500 )

10 0 How to calculate total space heating/air conditioning in EP? ( 2021-05-05 20:38:05 -0500 )

15 0 HeatPumpPlantLoopEIRHeating Not Heating ( 2021-05-05 16:56:06 -0500 )

10 0 HeatPumpPlantLoopEIRHeating Not Heating ( 2021-05-05 16:56:04 -0500 )

10 0 HeatPumpPlantLoopEIRHeating Not Heating ( 2021-04-30 14:31:44 -0500 )

10 0 How can HVACTemplate:Zone:VAV ensure Minimum OA Flow Rate? ( 2021-04-27 12:08:32 -0500 )

10 0 Thermostat and humidistat ( 2021-04-20 09:14:38 -0500 )

10 0 Thermostat and humidistat ( 2021-04-19 14:25:02 -0500 )

0 -10 Thermostat and humidistat ( 2021-04-19 14:25:00 -0500 )

10 0 Thermostat and humidistat ( 2021-04-19 14:24:57 -0500 )

10 0 HHW pump running even when boiler is off ( 2021-04-14 08:40:12 -0500 )

0 -10 HHW pump running even when boiler is off ( 2021-04-14 08:40:11 -0500 )

10 0 HHW pump running even when boiler is off ( 2021-04-14 08:40:10 -0500 )

0 -10 HHW pump running even when boiler is off ( 2021-04-14 08:40:08 -0500 )

15 0 HHW pump running even when boiler is off ( 2021-04-14 08:40:05 -0500 )

15 0 HHW pump running even when boiler is off ( 2021-04-14 08:07:07 -0500 )

10 0 HHW pump running even when boiler is off ( 2021-04-14 08:07:05 -0500 )

10 0 HHW pump running even when boiler is off ( 2021-04-13 18:56:40 -0500 )

10 0 Using a US-based building in a different location (EnergyPlus) ( 2021-04-13 10:27:27 -0500 )

10 0 What is the Thermostat Setpoint Temperature at Peak Load [C] in OS's Results Summary? ( 2021-04-12 15:49:09 -0500 )

10 0 Daily Heating Load Peaks at 6AM, 10AM, 5PM? ( 2021-04-05 09:54:57 -0500 )

10 0 How to exclude air film coefficient in constructions? ( 2021-03-29 01:11:23 -0500 )

10 0 built in method to merge idfs with eppy? ( 2021-03-14 09:32:36 -0500 )

1 0 Which temperature field best represents indoor living zone temperature? ( 2021-02-23 13:03:44 -0500 )

0 -1 Which temperature field best represents indoor living zone temperature? ( 2021-02-22 15:20:02 -0500 )

0 -1 Clicked finish after installation and nothing happened ( 2021-02-12 10:39:59 -0500 )

0 -1 EPW file doesn't change ( 2021-02-04 10:44:09 -0500 )

10 0 Space type configuration in PNNL prototypes ( 2021-02-02 11:17:02 -0500 )

15 0 Space type configuration in PNNL prototypes ( 2021-02-02 11:17:01 -0500 )

10 0 Euclid Building Model Prototype ( 2021-02-02 11:12:41 -0500 )

10 0 Can I model a cold storage room using absorption chiller? ( 2021-02-01 18:12:42 -0500 )

15 0 I have a doubt about Sizing:System / Design Outdoor Air Flow Rate documentation ( 2021-01-25 04:10:49 -0500 )

10 0 Euclid Building Model Prototype ( 2021-01-24 11:15:24 -0500 )

10 0 I have a doubt about Sizing:System / Design Outdoor Air Flow Rate documentation ( 2021-01-24 11:15:18 -0500 )

10 0 Using a US-based building in a different location (EnergyPlus) ( 2021-01-24 11:13:55 -0500 )

15 0 Constant Volume Fan not Constant ( 2021-01-20 13:14:09 -0500 )

0 -15 Constant Volume Fan not Constant ( 2021-01-20 13:14:07 -0500 )

15 0 Constant Volume Fan not Constant ( 2021-01-20 13:14:07 -0500 )

10 0 Constant Volume Fan not Constant ( 2021-01-20 08:38:55 -0500 )

10 0 Constant Volume Fan not Constant ( 2021-01-19 15:07:20 -0500 )

10 0 Constant Volume Fan not Constant ( 2021-01-19 13:09:05 -0500 )

10 0 Constant Volume Fan not Constant ( 2021-01-19 12:57:27 -0500 )

10 0 What is the name of the output variable that calculates infiltration sensible heating rate in Watts? ( 2021-01-09 11:25:15 -0500 )

10 0 visualize EnergyPlus schedules ( 2020-12-01 04:00:57 -0500 )

10 0 Is it possible to simulate electric storage heaters in Energy+? ( 2020-11-14 10:00:30 -0500 )

10 0 Is it possible to simulate electric storage heaters in Energy+? ( 2020-11-13 12:32:12 -0500 )

10 0 Space type configuration in PNNL prototypes ( 2020-11-11 10:47:09 -0500 )

10 0 How to exclude air film coefficient in constructions? ( 2020-11-10 11:06:25 -0500 )

10 0 T24 templates in Ladybug Tool ( 2020-11-10 07:31:11 -0500 )

10 0 airloop from scratch ( 2020-11-10 07:30:52 -0500 )

10 0 Space type configuration in PNNL prototypes ( 2020-11-10 07:29:32 -0500 )

10 0 Space type configuration in PNNL prototypes ( 2020-11-09 20:18:48 -0500 )

10 0 Standard 90.1 prototyping building models ( 2020-10-05 11:03:51 -0500 )

0 -1 Air Cooled Chiller + Waterside Economizer ( 2020-10-03 13:40:24 -0500 )

0 -2 Standard 90.1 prototyping building models ( 2020-10-03 13:32:51 -0500 )

2 0 Standard 90.1 prototyping building models ( 2020-10-03 13:32:50 -0500 )

0 -2 Standard 90.1 prototyping building models ( 2020-10-03 13:32:50 -0500 )

2 0 Standard 90.1 prototyping building models ( 2020-10-03 13:32:49 -0500 )

0 -2 Standard 90.1 prototyping building models ( 2020-10-03 13:31:27 -0500 )

2 0 Standard 90.1 prototyping building models ( 2020-10-03 13:31:26 -0500 )

0 -2 Standard 90.1 prototyping building models ( 2020-10-03 13:31:23 -0500 )

0 -1 Standard 90.1 prototyping building models ( 2020-10-03 13:31:22 -0500 )

10 0 Matching and Adiabatic Subsurface Errors ( 2020-10-02 10:30:28 -0500 )

10 0 How to compare input of two models in DesignBuilder ( 2020-10-02 10:16:51 -0500 )

10 0 Influence of "design specification outdoor air" and "design day" in ideal loads calculation ( 2020-10-01 09:49:52 -0500 )

10 0 Which number should i follow in energyplus results related to unmet hours ( Time Setpoint Not Met During Occupied , Time Not Comfortable Based on Simple ASHRAE 55-2004) ??As the two numbers are different. ( 2020-09-30 10:36:49 -0500 )

10 0 Which number should i follow in energyplus results related to unmet hours ( Time Setpoint Not Met During Occupied , Time Not Comfortable Based on Simple ASHRAE 55-2004) ??As the two numbers are different. ( 2020-09-30 07:51:05 -0500 )

10 0 How to compare input of two models in DesignBuilder ( 2020-09-30 07:50:08 -0500 )

15 0 How to exclude air film coefficient in constructions? ( 2020-09-24 14:48:17 -0500 )

10 0 How to exclude air film coefficient in constructions? ( 2020-09-24 14:48:16 -0500 )

10 0 How to exclude air film coefficient in constructions? ( 2020-09-24 12:37:51 -0500 )